createdAt,value
2022-10-28T00:04:19.956Z,22.43
2022-10-28T00:09:26.054Z,27.57
2022-10-28T00:14:31.302Z,26.10
2022-10-28T00:19:36.539Z,30.20
2022-10-28T00:24:41.684Z,21.70
2022-10-28T00:29:46.900Z,18.67
2022-10-28T00:34:52.112Z,20.40
2022-10-28T00:39:57.269Z,20.37
2022-10-28T00:45:04.248Z,15.73
2022-10-28T00:50:27.245Z,16.03
2022-10-28T00:55:34.138Z,20.87
2022-10-28T01:00:39.381Z,19.43
2022-10-28T01:05:47.458Z,17.03
2022-10-28T01:11:27.977Z,17.97
2022-10-28T01:16:38.805Z,15.93
2022-10-28T01:22:03.349Z,15.50
2022-10-28T01:27:14.481Z,25.63
2022-10-28T01:32:31.402Z,17.00
2022-10-28T01:37:47.116Z,19.07
2022-10-28T01:42:58.349Z,20.70
2022-10-28T01:48:06.571Z,21.17
2022-10-28T01:53:17.838Z,19.07
2022-10-28T01:58:26.052Z,20.77
2022-10-28T02:03:33.316Z,19.07
2022-10-28T02:09:04.005Z,18.43
2022-10-28T02:14:28.988Z,15.70
2022-10-28T02:19:46.427Z,20.40
2022-10-28T02:25:12.309Z,19.53
2022-10-28T02:30:20.496Z,17.93
2022-10-28T02:35:34.576Z,21.57
2022-10-28T02:40:43.514Z,17.87
2022-10-28T02:45:51.748Z,19.13
2022-10-28T02:50:59.898Z,18.27
2022-10-28T02:56:07.478Z,16.63
2022-10-28T03:01:12.813Z,19.67
2022-10-28T03:06:18.098Z,26.00
2022-10-28T03:11:23.493Z,16.30
2022-10-28T03:16:28.677Z,14.43
2022-10-28T03:21:34.316Z,17.47
2022-10-28T03:26:39.634Z,20.17
2022-10-28T03:31:44.891Z,17.93
2022-10-28T03:36:50.300Z,16.13
2022-10-28T03:41:56.677Z,19.80
2022-10-28T03:47:01.880Z,19.17
2022-10-28T03:52:07.642Z,19.03
2022-10-28T03:57:12.897Z,17.50
2022-10-28T04:02:18.227Z,16.07
2022-10-28T04:07:24.283Z,15.27
2022-10-28T04:12:29.489Z,26.80
2022-10-28T04:17:39.524Z,17.87
2022-10-28T04:22:45.049Z,23.47
2022-10-28T04:27:51.296Z,18.70
2022-10-28T04:32:56.749Z,16.67
2022-10-28T04:38:01.964Z,19.70
2022-10-28T04:43:09.657Z,27.03
2022-10-28T04:48:15.555Z,16.53
2022-10-28T04:53:21.259Z,23.63
2022-10-28T04:58:27.532Z,18.77
2022-10-28T05:03:32.868Z,28.33
2022-10-28T05:08:38.268Z,23.00
2022-10-28T05:13:43.675Z,21.37
2022-10-28T05:18:49.460Z,23.67
2022-10-28T05:23:55.618Z,31.70
2022-10-28T05:29:00.927Z,30.17
2022-10-28T05:34:07.014Z,24.97
2022-10-28T05:39:14.146Z,22.80
2022-10-28T05:44:19.462Z,22.70
2022-10-28T05:49:24.920Z,24.53
2022-10-28T05:54:30.195Z,18.23
2022-10-28T05:59:35.451Z,28.87
2022-10-28T06:04:40.642Z,18.13
2022-10-28T06:09:45.873Z,28.53
2022-10-28T06:14:49.610Z,22.83
2022-10-28T06:19:54.968Z,24.63
2022-10-28T06:25:00.363Z,25.73
2022-10-28T06:30:08.138Z,25.43
2022-10-28T06:35:13.626Z,26.50
2022-10-28T06:40:18.851Z,29.27
2022-10-28T06:45:24.174Z,31.43
2022-10-28T06:50:33.351Z,27.83
2022-10-28T06:55:38.861Z,28.07
2022-10-28T07:00:44.186Z,31.10
2022-10-28T07:05:51.756Z,30.80
2022-10-28T07:10:58.688Z,30.53
2022-10-28T07:16:05.453Z,30.10
2022-10-28T07:21:11.172Z,32.13
2022-10-28T07:26:16.526Z,33.50
2022-10-28T07:31:21.873Z,30.70
2022-10-28T07:36:27.529Z,37.27
2022-10-28T07:41:33.073Z,34.83
2022-10-28T07:46:38.602Z,35.90
2022-10-28T07:51:44.129Z,37.70
2022-10-28T07:56:49.595Z,29.90
2022-10-28T08:01:55.625Z,31.37
2022-10-28T08:07:01.100Z,27.80
2022-10-28T08:12:08.134Z,29.53
2022-10-28T08:17:13.516Z,28.53
2022-10-28T08:22:19.384Z,32.93
2022-10-28T08:27:25.474Z,24.37
2022-10-28T08:32:30.878Z,24.73
2022-10-28T08:37:36.307Z,26.87
2022-10-28T08:42:54.259Z,22.43
2022-10-28T08:48:34.889Z,23.80
2022-10-28T08:53:43.334Z,24.37
2022-10-28T08:58:50.173Z,23.20
2022-10-28T09:03:55.737Z,20.73
2022-10-28T09:09:03.572Z,21.93
2022-10-28T09:14:26.475Z,17.53
2022-10-28T09:19:52.709Z,22.80
2022-10-28T09:25:18.179Z,21.63
2022-10-28T09:30:54.180Z,26.47
2022-10-28T09:36:01.917Z,20.87
2022-10-28T09:41:22.157Z,21.20
2022-10-28T09:46:34.663Z,18.97
2022-10-28T09:52:16.194Z,16.17
2022-10-28T09:57:26.733Z,19.70
2022-10-28T10:02:50.664Z,19.13
2022-10-28T10:08:11.284Z,14.50
2022-10-28T10:13:19.391Z,23.33
2022-10-28T10:18:27.546Z,24.33
2022-10-28T10:23:37.143Z,18.20
2022-10-28T10:28:48.631Z,18.80
2022-10-28T10:33:57.232Z,14.03
2022-10-28T10:39:04.272Z,15.13
2022-10-28T10:44:24.417Z,15.50
2022-10-28T10:49:47.004Z,14.70
2022-10-28T10:55:01.216Z,25.23
2022-10-28T11:00:07.221Z,15.67
2022-10-28T11:05:13.280Z,14.97
2022-10-28T11:10:30.504Z,12.67
2022-10-28T11:15:35.868Z,11.47
2022-10-28T11:20:50.583Z,14.80
2022-10-28T11:25:58.566Z,15.47
2022-10-28T11:31:36.065Z,18.07
2022-10-28T11:36:50.694Z,14.67
2022-10-28T11:42:31.209Z,18.23
2022-10-28T11:48:02.350Z,15.37
2022-10-28T11:53:31.501Z,17.10
2022-10-28T11:58:39.918Z,16.03
2022-10-28T12:03:57.951Z,18.30
2022-10-28T12:09:33.012Z,20.47
2022-10-28T12:14:47.574Z,17.33
2022-10-28T12:20:00.444Z,14.67
2022-10-28T12:25:30.036Z,13.90
2022-10-28T12:30:38.212Z,20.10
2022-10-28T12:35:55.580Z,16.23
2022-10-28T12:41:22.603Z,17.37
2022-10-28T12:51:59.495Z,17.60
2022-10-28T12:57:18.391Z,21.63
2022-10-28T13:02:33.717Z,15.83
2022-10-28T13:08:15.024Z,18.83
2022-10-28T13:13:40.182Z,15.10
2022-10-28T13:18:51.614Z,16.47
2022-10-28T13:23:59.971Z,15.97
2022-10-28T13:29:15.792Z,15.30
2022-10-28T13:34:28.723Z,21.47
2022-10-28T13:39:41.467Z,14.60
2022-10-28T13:45:00.265Z,26.67
2022-10-28T13:50:13.480Z,16.00
2022-10-28T13:55:44.895Z,24.10
2022-10-28T14:00:58.878Z,19.13
2022-10-28T14:06:04.235Z,21.03
2022-10-28T14:11:11.998Z,20.53
2022-10-28T14:16:31.828Z,16.20
2022-10-28T14:21:48.227Z,20.20
2022-10-28T14:27:09.206Z,18.93
2022-10-28T14:32:34.066Z,11.17
2022-10-28T14:37:56.240Z,21.13
2022-10-28T14:43:13.871Z,20.60
2022-10-28T14:48:56.192Z,20.17
2022-10-28T14:54:02.654Z,18.10
2022-10-28T14:59:34.194Z,16.43
2022-10-28T15:05:06.690Z,13.73
2022-10-28T15:10:31.946Z,15.90
2022-10-28T15:15:59.475Z,23.57
2022-10-28T15:21:13.485Z,24.77
2022-10-28T15:26:21.501Z,17.00
2022-10-28T15:31:27.551Z,15.17
2022-10-28T15:36:35.323Z,21.27
2022-10-28T15:41:53.716Z,19.03
2022-10-28T15:46:59.854Z,25.83
2022-10-28T15:52:25.219Z,16.80
2022-10-28T15:57:37.467Z,16.67
2022-10-28T16:02:43.766Z,17.00
2022-10-28T16:07:54.758Z,15.60
2022-10-28T16:13:36.164Z,20.87
2022-10-28T16:18:51.460Z,21.70
2022-10-28T16:23:59.153Z,14.03
2022-10-28T16:29:04.382Z,14.00
2022-10-28T16:34:32.333Z,19.53
2022-10-28T16:39:48.096Z,12.43
2022-10-28T16:51:11.230Z,18.37
2022-10-28T16:56:33.808Z,17.60
2022-10-28T17:01:39.588Z,18.07
2022-10-28T17:07:05.148Z,13.27
2022-10-28T17:12:15.866Z,19.07
2022-10-28T17:17:24.767Z,10.73
2022-10-28T17:22:47.292Z,20.37
2022-10-28T17:27:55.595Z,18.93
2022-10-28T17:33:01.312Z,24.87
2022-10-28T17:38:06.678Z,25.93
2022-10-28T17:43:29.406Z,31.63
2022-10-28T17:48:36.135Z,22.63
2022-10-28T17:53:43.014Z,16.87
2022-10-28T17:58:48.492Z,22.63
2022-10-28T18:03:53.971Z,16.50
2022-10-28T18:08:59.318Z,25.20
2022-10-28T18:14:06.691Z,18.23
2022-10-28T18:19:17.307Z,22.73
2022-10-28T18:24:28.222Z,24.23
2022-10-28T18:29:33.597Z,29.33
2022-10-28T18:34:39.054Z,28.70
2022-10-28T18:39:44.260Z,22.37
2022-10-28T18:45:07.543Z,19.37
2022-10-28T18:50:14.513Z,19.70
2022-10-28T18:55:19.941Z,24.33
2022-10-28T19:00:25.215Z,20.70
2022-10-28T19:05:33.272Z,24.90
2022-10-28T19:10:38.834Z,28.97
2022-10-28T19:15:50.240Z,18.93
2022-10-28T19:21:12.044Z,34.97
2022-10-28T19:26:17.737Z,28.70
2022-10-28T19:31:25.654Z,34.27
2022-10-28T19:36:31.880Z,19.77
2022-10-28T19:41:37.265Z,17.37
2022-10-28T19:59:15.304Z,14.93
2022-10-28T20:16:35.936Z,22.23
2022-10-28T20:27:50.435Z,22.53
2022-10-28T20:44:42.548Z,20.37
2022-10-28T20:49:51.804Z,17.10
2022-10-28T21:00:49.997Z,24.43
2022-10-28T21:11:24.157Z,17.63
2022-10-28T21:16:46.424Z,15.80
2022-10-28T21:39:39.382Z,19.17
2022-10-28T21:45:25.750Z,16.00
2022-10-28T22:03:07.945Z,16.07
2022-10-28T22:10:49.996Z,18.90
2022-10-28T22:14:14.398Z,16.03
2022-10-28T22:20:03.457Z,15.53
2022-10-28T22:44:02.659Z,12.50
